createdAt,value
2023-03-03T00:00:09.992Z,0.74
2023-03-03T00:01:15.888Z,0.71
2023-03-03T00:02:18.117Z,0.67
2023-03-03T00:03:23.468Z,0.66
2023-03-03T00:04:25.789Z,0.74
2023-03-03T00:05:28.046Z,0.72
2023-03-03T00:06:30.555Z,0.61
2023-03-03T00:07:32.879Z,0.57
2023-03-03T00:08:35.016Z,0.52
2023-03-03T00:09:37.314Z,0.39
2023-03-03T00:10:39.788Z,0.40
2023-03-03T00:11:42.043Z,0.38
2023-03-03T00:12:49.183Z,0.35
2023-03-03T00:13:53.818Z,0.42
2023-03-03T00:14:56.560Z,0.40
2023-03-03T00:16:26.499Z,0.44
2023-03-03T00:17:32.786Z,0.48
2023-03-03T00:18:42.736Z,0.54
2023-03-03T00:19:47.322Z,0.45
2023-03-03T00:20:53.570Z,0.38
2023-03-03T00:21:58.218Z,0.34
2023-03-03T00:23:25.275Z,0.37
2023-03-03T00:24:38.228Z,0.39
2023-03-03T00:25:43.849Z,0.23
2023-03-03T00:26:57.048Z,0.25
2023-03-03T00:28:16.147Z,0.09
2023-03-03T00:29:35.996Z,0.20
2023-03-03T00:30:38.211Z,0.07
2023-03-03T00:31:40.470Z,0.12
2023-03-03T00:32:47.170Z,0.02
2023-03-03T00:33:57.313Z,0.04
2023-03-03T00:35:18.770Z,-0.01
2023-03-03T00:36:28.811Z,0.06
2023-03-03T00:37:35.385Z,0.06
2023-03-03T00:38:37.655Z,0.13
2023-03-03T00:39:39.996Z,0.27
2023-03-03T00:40:42.452Z,0.26
2023-03-03T00:41:44.883Z,0.29
2023-03-03T00:42:51.281Z,0.24
2023-03-03T00:43:54.306Z,0.24
2023-03-03T00:45:00.753Z,0.19
2023-03-03T00:46:03.496Z,0.16
2023-03-03T00:47:23.186Z,0.13
2023-03-03T00:48:36.176Z,0.14
2023-03-03T00:49:39.708Z,0.14
2023-03-03T00:50:43.968Z,0.14
2023-03-03T00:51:46.157Z,0.13
2023-03-03T00:53:01.604Z,0.13
2023-03-03T00:54:04.258Z,-0.05
2023-03-03T00:55:07.871Z,-0.07
2023-03-03T00:56:10.104Z,-0.03
2023-03-03T00:57:15.381Z,0.00
2023-03-03T00:58:21.674Z,-0.05
2023-03-03T00:59:24.917Z,0.06
2023-03-03T01:00:27.270Z,0.08
2023-03-03T01:01:29.520Z,0.03
2023-03-03T01:02:31.795Z,-0.07
2023-03-03T01:03:34.019Z,-0.01
2023-03-03T01:04:36.358Z,0.05
2023-03-03T01:05:38.817Z,0.07
2023-03-03T01:06:40.977Z,-0.04
2023-03-03T01:07:43.311Z,-0.12
2023-03-03T01:08:45.827Z,-0.04
2023-03-03T01:09:48.744Z,0.06
2023-03-03T01:10:57.625Z,0.09
2023-03-03T01:12:00.187Z,0.13
2023-03-03T01:13:03.585Z,0.19
2023-03-03T01:14:06.036Z,0.17
2023-03-03T01:15:11.109Z,0.20
2023-03-03T01:16:14.046Z,0.27
2023-03-03T01:17:16.388Z,0.36
2023-03-03T01:18:18.877Z,0.42
2023-03-03T01:19:21.127Z,0.41
2023-03-03T01:20:23.702Z,0.37
2023-03-03T01:21:25.964Z,0.48
2023-03-03T01:22:28.364Z,0.45
2023-03-03T01:23:30.592Z,0.36
2023-03-03T01:24:33.429Z,0.34
2023-03-03T01:25:35.958Z,0.31
2023-03-03T01:26:38.518Z,0.27
2023-03-03T01:27:40.787Z,0.29
2023-03-03T01:28:43.010Z,0.31
2023-03-03T01:29:45.602Z,0.31
2023-03-03T01:30:47.911Z,0.30
2023-03-03T01:31:50.151Z,0.23
2023-03-03T01:32:52.751Z,0.25
2023-03-03T01:33:54.915Z,0.27
2023-03-03T01:34:57.357Z,0.25
2023-03-03T01:35:59.673Z,0.22
2023-03-03T01:37:01.988Z,0.18
2023-03-03T01:38:04.230Z,0.19
2023-03-03T01:39:06.383Z,0.17
2023-03-03T01:40:21.341Z,0.12
2023-03-03T01:41:23.562Z,0.07
2023-03-03T01:42:29.144Z,-0.04
2023-03-03T01:43:33.075Z,-0.06
2023-03-03T01:44:35.332Z,-0.19
2023-03-03T01:45:49.929Z,-0.24
2023-03-03T01:47:11.073Z,-0.41
2023-03-03T01:48:20.870Z,-0.50
2023-03-03T01:49:28.818Z,-0.39
2023-03-03T01:50:31.047Z,-0.37
2023-03-03T01:51:37.315Z,-0.35
2023-03-03T01:52:43.250Z,-0.41
2023-03-03T01:53:53.368Z,-0.44
2023-03-03T01:55:00.310Z,-0.51
2023-03-03T01:56:05.656Z,-0.57
2023-03-03T01:57:14.856Z,-0.62
2023-03-03T01:58:23.126Z,-0.55
2023-03-03T01:59:31.756Z,-0.57
2023-03-03T02:02:18.680Z,-0.58
2023-03-03T02:03:23.453Z,-0.63
2023-03-03T02:04:26.981Z,-0.62
2023-03-03T02:05:29.817Z,-0.62
2023-03-03T02:06:38.217Z,-0.60
2023-03-03T02:07:40.699Z,-0.66
2023-03-03T02:08:53.601Z,-0.73
2023-03-03T02:10:12.340Z,-0.75
2023-03-03T02:11:16.094Z,-0.80
2023-03-03T02:12:20.090Z,-0.71
2023-03-03T02:13:22.366Z,-0.71
2023-03-03T02:14:25.535Z,-0.60
2023-03-03T02:15:38.061Z,-0.53
2023-03-03T02:16:40.670Z,-0.46
2023-03-03T02:17:43.146Z,-0.39
2023-03-03T02:18:45.780Z,-0.33
2023-03-03T02:19:58.075Z,-0.26
2023-03-03T02:21:15.349Z,-0.25
2023-03-03T02:22:24.745Z,-0.23
2023-03-03T02:23:32.800Z,-0.25
2023-03-03T02:24:43.165Z,-0.21
2023-03-03T02:25:58.972Z,-0.21
2023-03-03T02:27:03.923Z,-0.24
2023-03-03T02:28:06.450Z,-0.24
2023-03-03T02:29:10.114Z,-0.24
2023-03-03T02:30:18.184Z,-0.18
2023-03-03T02:31:25.259Z,-0.15
2023-03-03T02:32:27.515Z,-0.24
2023-03-03T02:33:29.822Z,-0.20
2023-03-03T02:34:43.444Z,-0.20
2023-03-03T02:35:45.931Z,-0.21
2023-03-03T02:36:48.252Z,-0.19
2023-03-03T02:37:53.573Z,-0.23
2023-03-03T02:39:05.925Z,-0.21
2023-03-03T02:40:10.082Z,-0.21
2023-03-03T02:41:38.561Z,-0.31
2023-03-03T02:42:44.374Z,-0.35
2023-03-03T02:44:01.802Z,-0.40
2023-03-03T02:45:05.702Z,-0.42
2023-03-03T02:46:08.029Z,-0.41
2023-03-03T02:47:11.364Z,-0.40
2023-03-03T02:48:14.875Z,-0.36
2023-03-03T02:49:20.216Z,-0.41
2023-03-03T02:50:22.469Z,-0.49
2023-03-03T02:51:24.698Z,-0.63
2023-03-03T02:52:26.872Z,-0.70
2023-03-03T02:53:29.102Z,-0.71
2023-03-03T02:54:31.943Z,-0.79
2023-03-03T02:55:35.558Z,-0.83
2023-03-03T02:56:38.054Z,-0.96
2023-03-03T02:57:40.307Z,-1.06
2023-03-03T02:58:42.486Z,-1.03
2023-03-03T02:59:44.959Z,-1.04
2023-03-03T03:00:49.909Z,-0.98
2023-03-03T03:01:55.274Z,-0.99
2023-03-03T03:02:59.016Z,-1.04
2023-03-03T03:04:01.320Z,-1.07
2023-03-03T03:05:04.320Z,-1.20
2023-03-03T03:06:06.951Z,-1.26
2023-03-03T03:07:11.858Z,-1.17
2023-03-03T03:08:14.276Z,-1.24
2023-03-03T03:09:17.658Z,-1.21
2023-03-03T03:10:20.679Z,-1.28
2023-03-03T03:11:30.078Z,-1.21
2023-03-03T03:12:48.146Z,-1.13
2023-03-03T03:13:51.869Z,-1.12
2023-03-03T03:14:54.639Z,-1.01
2023-03-03T03:15:56.874Z,-0.89
2023-03-03T03:16:59.232Z,-0.87
2023-03-03T03:18:03.319Z,-0.93
2023-03-03T03:19:07.093Z,-0.93
2023-03-03T03:20:11.303Z,-1.08
2023-03-03T03:21:14.256Z,-1.18
2023-03-03T03:22:19.443Z,-1.34
2023-03-03T03:23:24.643Z,-1.27
2023-03-03T03:24:26.873Z,-1.22
2023-03-03T03:25:34.067Z,-1.19
2023-03-03T03:26:36.401Z,-1.36
2023-03-03T03:27:39.033Z,-1.35
2023-03-03T03:28:41.684Z,-1.36
2023-03-03T03:29:43.892Z,-1.45
2023-03-03T03:30:46.948Z,-1.47
2023-03-03T03:31:49.427Z,-1.50
2023-03-03T03:32:51.735Z,-1.54
2023-03-03T03:33:54.593Z,-1.55
2023-03-03T03:34:57.485Z,-1.53
2023-03-03T03:35:59.882Z,-1.53
2023-03-03T03:37:02.376Z,-1.60
2023-03-03T03:38:04.791Z,-1.63
2023-03-03T03:39:07.220Z,-1.60
2023-03-03T03:40:12.880Z,-1.67
2023-03-03T03:41:15.090Z,-1.65
2023-03-03T03:42:18.110Z,-1.50
2023-03-03T03:43:20.983Z,-1.42
2023-03-03T03:44:25.089Z,-1.38
2023-03-03T03:45:27.640Z,-1.36
2023-03-03T03:46:29.921Z,-1.46
2023-03-03T03:47:32.132Z,-1.45
2023-03-03T03:48:35.677Z,-1.49
2023-03-03T03:49:39.639Z,-1.47
2023-03-03T03:50:41.918Z,-1.34
2023-03-03T03:51:44.723Z,-1.30
2023-03-03T03:52:51.241Z,-1.27
2023-03-03T03:53:53.750Z,-1.32
2023-03-03T03:54:56.051Z,-1.21
2023-03-03T03:55:58.408Z,-1.13
2023-03-03T03:57:00.788Z,-1.11
2023-03-03T03:58:04.143Z,-1.01
2023-03-03T03:59:08.101Z,-0.96
2023-03-03T04:00:11.979Z,-0.93
2023-03-03T04:01:18.837Z,-0.91
2023-03-03T04:02:24.147Z,-0.85
2023-03-03T04:03:27.156Z,-0.85
2023-03-03T04:04:29.692Z,-0.85
2023-03-03T04:05:32.584Z,-0.80
2023-03-03T04:06:35.003Z,-0.81
2023-03-03T04:07:37.480Z,-0.84
2023-03-03T04:08:39.703Z,-0.84
2023-03-03T04:09:43.812Z,-0.88
2023-03-03T04:10:46.137Z,-0.92
2023-03-03T04:11:48.558Z,-1.05
2023-03-03T04:12:51.178Z,-1.02
2023-03-03T04:13:53.516Z,-0.96
2023-03-03T04:14:55.998Z,-0.93
2023-03-03T04:15:58.311Z,-0.89
2023-03-03T04:17:00.842Z,-0.91
2023-03-03T04:18:03.556Z,-0.93
2023-03-03T04:19:06.377Z,-0.93
2023-03-03T04:20:13.928Z,-0.93
2023-03-03T04:21:16.499Z,-0.88
2023-03-03T04:22:21.113Z,-0.93
2023-03-03T04:23:23.420Z,-0.91
2023-03-03T04:24:25.911Z,-0.93
2023-03-03T04:25:28.340Z,-0.95
2023-03-03T04:26:31.592Z,-0.98
2023-03-03T04:27:36.513Z,-0.99
2023-03-03T04:28:39.449Z,-1.02
2023-03-03T04:29:42.744Z,-1.06
2023-03-03T04:30:45.896Z,-1.10
2023-03-03T04:31:50.621Z,-1.08
2023-03-03T04:32:53.757Z,-1.07
2023-03-03T04:33:58.811Z,-1.15
2023-03-03T04:35:08.124Z,-1.20
2023-03-03T04:36:13.207Z,-1.37
2023-03-03T04:37:16.160Z,-1.38
2023-03-03T04:38:19.063Z,-1.49
2023-03-03T04:39:22.765Z,-1.68
2023-03-03T04:40:25.219Z,-1.76
2023-03-03T04:41:27.668Z,-1.86
2023-03-03T04:42:30.067Z,-1.91
2023-03-03T04:43:32.345Z,-1.74
2023-03-03T04:44:35.957Z,-1.74
2023-03-03T04:45:38.212Z,-1.72
2023-03-03T04:46:40.816Z,-1.69
2023-03-03T04:47:43.095Z,-1.83
2023-03-03T04:48:45.400Z,-1.88
2023-03-03T04:49:47.688Z,-1.99
2023-03-03T04:50:50.109Z,-1.84
2023-03-03T04:51:52.456Z,-1.75
2023-03-03T04:52:54.712Z,-1.83
2023-03-03T04:53:57.060Z,-1.75
2023-03-03T04:54:59.455Z,-1.75
2023-03-03T04:56:02.324Z,-1.72
2023-03-03T04:57:04.567Z,-1.59
2023-03-03T04:58:10.184Z,-1.53
2023-03-03T04:59:12.456Z,-1.56
2023-03-03T05:00:15.159Z,-1.69
2023-03-03T05:01:19.352Z,-1.72
2023-03-03T05:02:21.637Z,-1.68
2023-03-03T05:03:24.953Z,-1.78
2023-03-03T05:04:27.189Z,-1.85
2023-03-03T05:05:29.493Z,-1.73
2023-03-03T05:06:31.712Z,-1.55
2023-03-03T05:07:33.910Z,-1.48
2023-03-03T05:08:36.161Z,-1.42
2023-03-03T05:09:38.392Z,-1.42
2023-03-03T05:10:40.921Z,-1.44
2023-03-03T05:11:43.209Z,-1.58
2023-03-03T05:12:45.540Z,-1.60
2023-03-03T05:13:47.738Z,-1.55
2023-03-03T05:14:49.986Z,-1.59
2023-03-03T05:15:55.216Z,-1.45
2023-03-03T05:16:57.690Z,-1.21
2023-03-03T05:17:59.984Z,-1.09
2023-03-03T05:19:02.251Z,-0.82
2023-03-03T05:20:05.691Z,-0.79
2023-03-03T05:21:07.934Z,-0.70
2023-03-03T05:22:10.405Z,-0.61
2023-03-03T05:23:12.624Z,-0.64
2023-03-03T05:24:15.115Z,-0.61
2023-03-03T05:25:17.641Z,-0.54
2023-03-03T05:26:20.292Z,-0.50
2023-03-03T05:27:22.534Z,-0.43
2023-03-03T05:28:24.843Z,-0.35
2023-03-03T05:29:28.508Z,-0.33
2023-03-03T05:30:30.756Z,-0.28
2023-03-03T05:31:33.516Z,-0.23
2023-03-03T05:32:36.203Z,-0.14
2023-03-03T05:33:38.520Z,-0.19
2023-03-03T05:34:40.817Z,-0.18
2023-03-03T05:35:43.451Z,-0.26
2023-03-03T05:36:45.770Z,-0.18
2023-03-03T05:37:49.680Z,-0.12
2023-03-03T05:38:52.127Z,-0.14
2023-03-03T05:39:54.339Z,-0.15
2023-03-03T05:40:56.540Z,-0.03
2023-03-03T05:42:00.205Z,-0.00
2023-03-03T05:43:02.519Z,0.09
2023-03-03T05:44:04.832Z,0.01
2023-03-03T05:45:07.732Z,-0.06
2023-03-03T05:46:10.761Z,-0.09
2023-03-03T05:47:13.485Z,-0.07
2023-03-03T05:48:16.096Z,-0.03
2023-03-03T05:49:18.628Z,-0.07
2023-03-03T05:50:22.882Z,-0.15
2023-03-03T05:51:25.339Z,-0.29
2023-03-03T05:52:27.638Z,-0.15
2023-03-03T05:53:30.468Z,0.02
2023-03-03T05:54:32.777Z,0.03
2023-03-03T05:55:35.006Z,0.07
2023-03-03T05:56:37.246Z,0.06
2023-03-03T05:57:39.573Z,-0.03
2023-03-03T05:58:41.945Z,-0.02
2023-03-03T05:59:44.180Z,0.07
2023-03-03T06:00:46.840Z,0.18
2023-03-03T06:01:49.063Z,0.07
2023-03-03T06:02:51.762Z,-0.06
2023-03-03T06:03:54.067Z,-0.23
2023-03-03T06:04:56.370Z,-0.15
2023-03-03T06:05:58.751Z,-0.10
2023-03-03T06:07:01.266Z,-0.12
2023-03-03T06:08:03.672Z,-0.10
2023-03-03T06:09:06.236Z,-0.05
2023-03-03T06:10:10.527Z,-0.13
2023-03-03T06:11:16.761Z,-0.19
2023-03-03T06:12:19.105Z,-0.16
2023-03-03T06:13:21.842Z,-0.12
2023-03-03T06:14:26.995Z,-0.17
2023-03-03T06:15:29.503Z,-0.19
2023-03-03T06:16:31.891Z,-0.24
2023-03-03T06:17:34.436Z,-0.22
2023-03-03T06:18:36.878Z,-0.17
2023-03-03T06:19:41.352Z,-0.15
2023-03-03T06:20:43.642Z,-0.18
2023-03-03T06:21:45.944Z,-0.22
2023-03-03T06:22:48.178Z,-0.24
2023-03-03T06:23:50.699Z,-0.19
2023-03-03T06:24:52.997Z,-0.20
2023-03-03T06:25:55.221Z,-0.10
2023-03-03T06:26:58.508Z,-0.07
2023-03-03T06:28:00.764Z,0.02
2023-03-03T06:29:03.000Z,0.09
2023-03-03T06:30:05.930Z,0.13
2023-03-03T06:31:08.209Z,0.15
2023-03-03T06:32:11.246Z,0.12
2023-03-03T06:33:13.499Z,0.11
2023-03-03T06:34:15.932Z,0.14
2023-03-03T06:35:18.373Z,0.15
2023-03-03T06:36:22.017Z,0.15
2023-03-03T06:37:24.298Z,0.13
2023-03-03T06:38:26.657Z,0.05
2023-03-03T06:39:29.183Z,0.14
2023-03-03T06:40:31.482Z,0.13
2023-03-03T06:41:34.449Z,0.05
2023-03-03T06:42:36.769Z,-0.06
2023-03-03T06:43:39.059Z,-0.09
2023-03-03T06:44:41.391Z,0.02
2023-03-03T06:45:45.521Z,0.10
2023-03-03T06:46:47.745Z,0.09
2023-03-03T06:47:49.932Z,0.14
2023-03-03T06:48:52.226Z,0.11
2023-03-03T06:49:54.452Z,0.20
2023-03-03T06:50:57.370Z,0.21
2023-03-03T06:52:02.260Z,0.29
2023-03-03T06:53:14.593Z,0.24
2023-03-03T06:54:19.291Z,0.24
2023-03-03T06:55:24.276Z,0.24
2023-03-03T06:56:27.427Z,0.23
2023-03-03T06:57:33.719Z,0.57
2023-03-03T06:58:36.148Z,0.62
2023-03-03T06:59:38.566Z,0.84
2023-03-03T07:00:46.165Z,0.92
2023-03-03T07:01:50.162Z,0.88
2023-03-03T07:03:02.158Z,1.37
2023-03-03T07:04:30.672Z,1.07
